createdAt,value
2022-11-16T00:02:13.585Z,45.00
2022-11-16T00:04:42.331Z,43.50
2022-11-16T00:07:11.049Z,46.70
2022-11-16T00:09:39.453Z,48.00
2022-11-16T00:12:10.823Z,44.30
2022-11-16T00:14:39.149Z,43.50
2022-11-16T00:17:07.389Z,46.10
2022-11-16T00:19:35.760Z,44.90
2022-11-16T00:22:04.062Z,45.00
2022-11-16T00:24:32.305Z,41.10
2022-11-16T00:27:00.610Z,46.80
2022-11-16T00:29:28.947Z,43.30
2022-11-16T00:31:57.206Z,49.70
2022-11-16T00:34:26.175Z,45.00
2022-11-16T00:36:54.485Z,46.00
2022-11-16T00:39:22.774Z,41.50
2022-11-16T00:41:51.168Z,43.40
2022-11-16T00:44:19.536Z,46.10
2022-11-16T00:46:47.953Z,48.40
2022-11-16T00:49:16.385Z,37.40
2022-11-16T00:51:44.664Z,40.50
2022-11-16T00:54:13.051Z,42.10
2022-11-16T00:56:41.508Z,38.70
2022-11-16T00:59:09.786Z,46.30
2022-11-16T01:01:38.329Z,42.00
2022-11-16T01:04:07.922Z,40.40
2022-11-16T01:06:37.624Z,41.70
2022-11-16T01:09:05.954Z,42.90
2022-11-16T01:11:52.841Z,40.90
2022-11-16T01:14:21.057Z,43.70
2022-11-16T01:16:50.705Z,40.50
2022-11-16T01:19:19.113Z,41.40
2022-11-16T01:21:47.439Z,38.80
2022-11-16T01:24:15.794Z,39.70
2022-11-16T01:26:44.220Z,44.30
2022-11-16T01:29:13.113Z,43.10
2022-11-16T01:31:45.411Z,42.20
2022-11-16T01:34:13.748Z,42.60
2022-11-16T01:36:41.965Z,41.60
2022-11-16T01:39:13.069Z,41.60
2022-11-16T01:41:49.376Z,39.90
2022-11-16T01:44:34.051Z,41.60
2022-11-16T01:47:11.809Z,43.20
2022-11-16T01:49:46.176Z,50.10
2022-11-16T01:52:24.410Z,43.20
2022-11-16T01:54:54.496Z,43.40
2022-11-16T01:57:33.069Z,40.70
2022-11-16T02:00:12.145Z,41.40
2022-11-16T02:02:46.040Z,36.60
2022-11-16T02:05:50.588Z,42.20
2022-11-16T02:09:16.206Z,40.30
2022-11-16T02:12:19.255Z,33.30
2022-11-16T02:15:04.591Z,36.50
2022-11-16T02:17:58.695Z,36.00
2022-11-16T02:20:40.700Z,35.40
2022-11-16T02:23:43.757Z,37.50
2022-11-16T02:26:31.124Z,34.70
2022-11-16T02:29:18.216Z,38.00
2022-11-16T02:32:09.167Z,36.30
2022-11-16T02:34:50.510Z,35.70
2022-11-16T02:37:22.750Z,37.30
2022-11-16T02:39:56.876Z,33.80
2022-11-16T02:42:35.353Z,36.30
2022-11-16T02:45:08.590Z,34.80
2022-11-16T02:47:39.774Z,37.40
2022-11-16T02:50:18.193Z,37.40
2022-11-16T02:52:46.609Z,34.30
2022-11-16T02:55:15.165Z,34.40
2022-11-16T02:57:59.010Z,35.00
2022-11-16T03:00:51.888Z,38.70
2022-11-16T03:03:48.062Z,39.20
2022-11-16T03:06:24.862Z,37.90
2022-11-16T03:09:18.715Z,38.90
2022-11-16T03:12:00.845Z,32.40
2022-11-16T03:14:59.197Z,34.40
2022-11-16T03:17:34.349Z,32.20
2022-11-16T03:20:11.784Z,33.20
2022-11-16T03:22:42.032Z,33.60
2022-11-16T03:25:12.935Z,36.70
2022-11-16T03:28:07.484Z,35.10
2022-11-16T03:30:42.619Z,35.60
2022-11-16T03:33:19.061Z,38.10
2022-11-16T03:35:56.623Z,32.80
2022-11-16T03:38:27.714Z,34.60
2022-11-16T03:41:06.500Z,35.20
2022-11-16T03:43:36.506Z,32.80
2022-11-16T03:46:06.030Z,36.10
2022-11-16T03:48:36.670Z,36.00
2022-11-16T03:51:10.690Z,37.00
2022-11-16T03:53:39.525Z,40.00
2022-11-16T03:56:08.109Z,34.20
2022-11-16T03:58:36.533Z,31.40
2022-11-16T04:01:05.193Z,31.90
2022-11-16T04:03:33.758Z,36.50
2022-11-16T04:06:20.712Z,29.50
2022-11-16T04:09:28.313Z,33.60
2022-11-16T04:12:15.450Z,36.80
2022-11-16T04:15:03.538Z,34.00
2022-11-16T04:17:51.426Z,36.20
2022-11-16T04:20:38.518Z,38.60
2022-11-16T04:23:32.607Z,33.60
2022-11-16T04:26:01.049Z,33.30
2022-11-16T04:28:35.135Z,35.20
2022-11-16T04:31:41.163Z,36.10
2022-11-16T04:34:30.330Z,42.20
2022-11-16T04:37:17.822Z,35.80
2022-11-16T04:39:46.625Z,36.20
2022-11-16T04:42:22.512Z,35.10
2022-11-16T04:45:11.282Z,33.00
2022-11-16T04:47:45.822Z,38.20
2022-11-16T04:50:14.623Z,37.60
2022-11-16T04:52:43.275Z,44.70
2022-11-16T04:55:13.780Z,36.60
2022-11-16T04:57:42.019Z,36.60
2022-11-16T05:00:11.118Z,39.70
2022-11-16T05:02:40.150Z,35.70
2022-11-16T05:05:09.274Z,32.40
2022-11-16T05:07:38.757Z,36.30
2022-11-16T05:10:13.336Z,36.20
2022-11-16T05:12:41.987Z,37.20
2022-11-16T05:15:11.305Z,31.60
2022-11-16T05:17:40.445Z,33.50
2022-11-16T05:20:31.470Z,32.20
2022-11-16T05:23:03.822Z,32.30
2022-11-16T05:25:36.959Z,31.10
2022-11-16T05:28:07.670Z,34.00
2022-11-16T05:30:39.248Z,30.60
2022-11-16T05:33:07.533Z,32.30
2022-11-16T05:35:39.024Z,32.40
2022-11-16T05:38:08.278Z,34.90
2022-11-16T05:40:40.583Z,42.30
2022-11-16T05:43:08.950Z,35.10
2022-11-16T05:45:40.980Z,33.70
2022-11-16T05:48:09.689Z,35.20
2022-11-16T05:50:42.495Z,40.50
2022-11-16T05:53:16.911Z,35.90
2022-11-16T05:55:45.305Z,32.50
2022-11-16T05:58:13.771Z,39.50
2022-11-16T06:00:42.131Z,36.20
2022-11-16T06:03:10.821Z,31.60
2022-11-16T06:05:40.632Z,33.90
2022-11-16T06:08:10.575Z,35.80
2022-11-16T06:10:38.879Z,36.40
2022-11-16T06:13:07.388Z,36.70
2022-11-16T06:15:39.709Z,33.80
2022-11-16T06:18:08.773Z,32.70
2022-11-16T06:20:39.432Z,34.70
2022-11-16T06:23:08.325Z,31.30
2022-11-16T06:25:39.027Z,35.30
2022-11-16T06:28:08.296Z,31.80
2022-11-16T06:30:39.568Z,33.40
2022-11-16T06:33:09.108Z,30.00
2022-11-16T06:35:38.560Z,30.80
2022-11-16T06:38:07.007Z,25.80
2022-11-16T06:40:35.508Z,29.40
2022-11-16T06:43:04.457Z,29.50
2022-11-16T06:45:32.996Z,29.60
2022-11-16T06:48:01.856Z,32.20
2022-11-16T06:50:30.279Z,27.50
2022-11-16T06:53:01.113Z,31.90
2022-11-16T06:55:30.182Z,30.70
2022-11-16T06:57:58.494Z,44.60
2022-11-16T07:00:28.227Z,35.00
2022-11-16T07:02:57.226Z,34.50
2022-11-16T07:05:25.524Z,33.30
2022-11-16T07:07:56.316Z,32.10
2022-11-16T07:10:26.282Z,29.30
2022-11-16T07:12:55.211Z,34.00
2022-11-16T07:15:24.631Z,30.30
2022-11-16T07:17:53.039Z,32.20
2022-11-16T07:20:21.439Z,30.50
2022-11-16T07:22:49.846Z,25.20
2022-11-16T07:25:18.654Z,27.80
2022-11-16T07:27:47.961Z,30.00
2022-11-16T07:30:16.892Z,30.30
2022-11-16T07:33:04.510Z,26.30
2022-11-16T07:35:51.708Z,29.70
2022-11-16T07:38:20.315Z,29.30
2022-11-16T07:40:48.925Z,30.40
2022-11-16T07:43:19.467Z,24.30
2022-11-16T07:46:45.149Z,27.60
2022-11-16T07:49:17.996Z,29.60
2022-11-16T07:52:10.589Z,29.10
2022-11-16T07:55:05.928Z,33.30
2022-11-16T07:57:35.058Z,25.30
2022-11-16T08:00:07.248Z,31.80
2022-11-16T08:02:41.795Z,28.90
2022-11-16T08:05:11.831Z,27.40
2022-11-16T08:07:40.741Z,27.80
2022-11-16T08:10:09.646Z,30.90
2022-11-16T08:12:37.949Z,30.80
2022-11-16T08:15:07.681Z,40.00
2022-11-16T08:17:36.024Z,37.80
2022-11-16T08:20:05.590Z,33.10
2022-11-16T08:22:33.999Z,33.30
2022-11-16T08:25:03.682Z,31.00
2022-11-16T08:27:33.372Z,25.60
2022-11-16T08:30:04.929Z,25.90
2022-11-16T08:32:33.370Z,29.80
2022-11-16T08:35:02.264Z,32.50
2022-11-16T08:37:32.157Z,32.60
2022-11-16T08:40:00.509Z,27.30
2022-11-16T08:42:29.718Z,31.00
2022-11-16T08:44:58.054Z,32.30
2022-11-16T08:47:26.495Z,30.60
2022-11-16T08:49:57.494Z,34.10
2022-11-16T08:52:27.024Z,32.00
2022-11-16T08:54:55.528Z,34.70
2022-11-16T08:57:23.918Z,36.80
2022-11-16T08:59:55.901Z,27.70
2022-11-16T09:02:25.933Z,29.10
2022-11-16T09:04:54.635Z,33.20
2022-11-16T09:07:23.142Z,36.50
2022-11-16T09:09:51.444Z,34.40
2022-11-16T09:12:20.255Z,36.90
2022-11-16T09:14:48.557Z,32.90
2022-11-16T09:17:21.854Z,32.80
2022-11-16T09:19:51.399Z,31.80
2022-11-16T09:22:19.707Z,32.20
2022-11-16T09:24:48.132Z,35.30
2022-11-16T09:27:17.141Z,32.20
2022-11-16T09:29:45.399Z,29.20
2022-11-16T09:32:13.742Z,28.70
2022-11-16T09:34:42.060Z,36.20
2022-11-16T09:37:10.270Z,29.70
2022-11-16T09:39:38.564Z,33.70
2022-11-16T09:42:31.431Z,31.50
2022-11-16T09:45:08.723Z,31.30
2022-11-16T09:47:54.530Z,29.90
2022-11-16T09:50:34.470Z,29.40
2022-11-16T09:53:34.440Z,25.00
2022-11-16T09:56:07.524Z,27.10
2022-11-16T09:59:06.686Z,26.60
2022-11-16T10:02:15.316Z,28.70
2022-11-16T10:04:56.694Z,33.00
2022-11-16T10:07:46.949Z,38.40
2022-11-16T10:10:52.782Z,29.30
2022-11-16T10:13:48.051Z,29.00
2022-11-16T10:16:45.370Z,33.00
2022-11-16T10:19:27.395Z,29.20
2022-11-16T10:22:28.395Z,29.60
2022-11-16T10:24:58.053Z,33.30
2022-11-16T10:27:51.236Z,32.30
2022-11-16T10:30:21.497Z,26.80
2022-11-16T10:33:10.918Z,31.10
2022-11-16T10:35:45.695Z,27.20
2022-11-16T10:38:17.377Z,27.20
2022-11-16T10:40:51.865Z,24.50
2022-11-16T10:43:30.518Z,26.30
2022-11-16T10:46:23.522Z,23.80
2022-11-16T10:48:54.695Z,27.50
2022-11-16T10:51:23.030Z,28.30
2022-11-16T10:53:53.374Z,26.70
2022-11-16T10:56:39.885Z,30.70
2022-11-16T10:59:42.106Z,28.20
2022-11-16T11:02:33.842Z,27.40
2022-11-16T11:05:23.054Z,31.50
2022-11-16T11:08:04.432Z,27.60
2022-11-16T11:10:39.142Z,29.10
2022-11-16T11:13:08.058Z,30.50
2022-11-16T11:15:40.401Z,25.60
2022-11-16T11:18:19.649Z,20.40
2022-11-16T11:21:13.041Z,27.00
2022-11-16T11:23:47.807Z,29.50
2022-11-16T11:26:25.121Z,25.30
2022-11-16T11:28:53.984Z,28.00
2022-11-16T11:31:34.571Z,29.50
2022-11-16T11:34:15.461Z,32.70
2022-11-16T11:36:52.624Z,25.50
2022-11-16T11:39:21.519Z,24.10
2022-11-16T11:42:03.903Z,25.10
2022-11-16T11:44:50.107Z,23.90
2022-11-16T11:50:28.645Z,27.20
2022-11-16T11:53:07.206Z,22.40
2022-11-16T11:55:35.522Z,24.30
2022-11-16T11:58:06.320Z,23.30
2022-11-16T12:01:20.732Z,24.80
2022-11-16T12:04:29.835Z,29.30
2022-11-16T12:07:22.773Z,26.90
2022-11-16T12:10:13.090Z,25.30
2022-11-16T12:12:55.297Z,22.40
2022-11-16T12:15:23.609Z,24.40
2022-11-16T12:18:07.371Z,27.90
2022-11-16T12:21:00.177Z,27.60
2022-11-16T12:24:22.794Z,26.50
2022-11-16T12:27:14.639Z,26.00
2022-11-16T12:29:53.756Z,22.30
2022-11-16T12:32:48.138Z,25.20
2022-11-16T12:35:37.756Z,26.30
2022-11-16T12:38:37.284Z,22.10
2022-11-16T12:41:27.278Z,25.30
2022-11-16T12:44:30.910Z,24.50
2022-11-16T12:47:11.298Z,23.00
2022-11-16T12:49:52.588Z,20.30
2022-11-16T12:52:39.410Z,23.00
2022-11-16T12:55:34.858Z,22.20
2022-11-16T12:58:14.705Z,24.90
2022-11-16T13:01:02.870Z,22.20
2022-11-16T13:04:01.625Z,24.70
2022-11-16T13:06:39.388Z,25.40
2022-11-16T13:09:10.887Z,23.40
2022-11-16T13:11:57.592Z,25.40
2022-11-16T13:14:33.903Z,22.90
2022-11-16T13:17:04.448Z,22.70
2022-11-16T13:19:37.965Z,24.10
2022-11-16T13:22:22.601Z,24.90
2022-11-16T13:25:19.434Z,26.90
2022-11-16T13:27:54.219Z,25.20
2022-11-16T13:30:29.111Z,23.70
2022-11-16T13:33:30.193Z,27.90
2022-11-16T13:35:58.579Z,27.00
2022-11-16T13:38:59.658Z,26.50
2022-11-16T13:41:41.479Z,28.00
2022-11-16T13:44:20.738Z,33.00
2022-11-16T13:47:04.656Z,28.50
2022-11-16T13:49:49.408Z,27.30
2022-11-16T13:52:23.796Z,27.10
2022-11-16T13:54:55.693Z,31.20
2022-11-16T13:57:34.071Z,31.20
2022-11-16T14:00:02.338Z,30.30
2022-11-16T14:02:38.060Z,31.20
2022-11-16T14:05:12.544Z,30.40
2022-11-16T14:07:48.157Z,32.00
2022-11-16T14:10:35.159Z,32.90
2022-11-16T14:13:44.012Z,33.30
2022-11-16T14:16:15.253Z,33.10
2022-11-16T14:18:58.759Z,39.10
2022-11-16T14:21:50.736Z,32.30
2022-11-16T14:24:29.279Z,36.40
2022-11-16T14:27:03.769Z,33.90
2022-11-16T14:29:56.530Z,37.20
2022-11-16T14:32:39.754Z,34.60
2022-11-16T14:35:26.624Z,37.90
2022-11-16T14:38:07.788Z,38.10
2022-11-16T14:40:46.620Z,43.90
2022-11-16T14:43:28.872Z,35.40
2022-11-16T14:46:01.623Z,38.50
2022-11-16T14:48:31.066Z,41.40
2022-11-16T14:51:16.991Z,35.80
2022-11-16T14:53:50.748Z,35.30
2022-11-16T14:56:19.917Z,33.10
2022-11-16T14:58:53.211Z,35.40
2022-11-16T15:01:25.866Z,37.70
2022-11-16T15:04:02.605Z,40.10
2022-11-16T15:06:39.317Z,37.10
2022-11-16T15:09:13.781Z,38.50
2022-11-16T15:12:01.885Z,36.00
2022-11-16T15:14:33.404Z,37.00
2022-11-16T15:17:01.822Z,36.70
2022-11-16T15:19:30.991Z,40.00
2022-11-16T15:22:01.749Z,41.50
2022-11-16T15:24:32.867Z,44.80
2022-11-16T15:27:11.058Z,50.20
2022-11-16T15:29:39.737Z,43.30
2022-11-16T15:32:15.746Z,35.80
2022-11-16T15:34:49.454Z,39.00
2022-11-16T15:37:30.366Z,38.20
2022-11-16T15:40:00.283Z,42.20
2022-11-16T15:42:28.899Z,49.20
2022-11-16T15:45:01.195Z,44.20
2022-11-16T15:47:30.355Z,37.50
2022-11-16T15:49:58.725Z,37.80
2022-11-16T15:52:50.342Z,38.20
2022-11-16T15:55:29.028Z,37.40
2022-11-16T15:58:26.732Z,33.80
2022-11-16T16:00:56.392Z,41.70
2022-11-16T16:03:31.775Z,42.30
2022-11-16T16:06:01.696Z,36.90
2022-11-16T16:08:34.564Z,37.70
2022-11-16T16:11:06.206Z,33.80
2022-11-16T16:13:57.376Z,40.80
2022-11-16T16:16:32.693Z,41.00
2022-11-16T16:19:09.546Z,43.40
2022-11-16T16:21:45.185Z,34.80
2022-11-16T16:24:39.612Z,35.20
2022-11-16T16:27:19.852Z,31.00
2022-11-16T16:29:50.654Z,36.60
2022-11-16T16:32:28.334Z,32.50
2022-11-16T16:34:59.078Z,36.20
2022-11-16T16:37:29.559Z,41.20
2022-11-16T16:39:58.939Z,40.10
2022-11-16T16:42:27.803Z,38.00
2022-11-16T16:44:59.917Z,44.30
2022-11-16T16:47:28.730Z,42.90
2022-11-16T16:49:57.184Z,44.00
2022-11-16T16:52:25.737Z,42.50
2022-11-16T16:54:54.235Z,40.90
2022-11-16T16:57:22.633Z,44.90
2022-11-16T16:59:51.150Z,46.00
2022-11-16T17:02:19.866Z,42.80
2022-11-16T17:04:48.691Z,41.20
2022-11-16T17:07:17.434Z,39.70
2022-11-16T17:09:46.002Z,40.50
2022-11-16T17:12:14.454Z,43.70
2022-11-16T17:14:43.018Z,37.30
2022-11-16T17:17:11.403Z,38.40
2022-11-16T17:19:39.812Z,33.60
2022-11-16T17:22:08.141Z,32.30
2022-11-16T17:24:36.553Z,34.50
2022-11-16T17:27:05.342Z,34.40
2022-11-16T17:29:33.814Z,42.00
2022-11-16T17:32:02.573Z,34.90
2022-11-16T17:34:32.195Z,31.60
2022-11-16T17:37:00.781Z,32.70
2022-11-16T17:39:29.129Z,34.30
2022-11-16T17:41:57.503Z,36.30
2022-11-16T17:44:26.822Z,33.90
2022-11-16T17:46:55.261Z,36.50
2022-11-16T17:49:23.731Z,33.80
2022-11-16T17:51:52.214Z,35.50
2022-11-16T17:54:20.642Z,32.90
2022-11-16T17:56:49.051Z,39.80
2022-11-16T17:59:17.342Z,32.50
2022-11-16T18:01:45.863Z,34.00
2022-11-16T18:04:14.260Z,33.50
2022-11-16T18:06:42.533Z,38.30
2022-11-16T18:09:11.522Z,38.60
2022-11-16T18:11:39.967Z,40.70
2022-11-16T18:14:09.357Z,40.30
2022-11-16T18:16:37.896Z,40.00
2022-11-16T18:19:06.938Z,40.70
2022-11-16T18:21:40.649Z,40.70
2022-11-16T18:24:09.565Z,45.40
2022-11-16T18:26:39.299Z,43.30
2022-11-16T18:29:12.336Z,42.80
2022-11-16T18:31:40.629Z,48.50
2022-11-16T18:34:08.932Z,55.50
2022-11-16T18:36:37.269Z,57.20
2022-11-16T18:39:05.544Z,49.80
2022-11-16T18:41:34.028Z,52.50
2022-11-16T18:44:03.060Z,52.80
2022-11-16T18:46:32.859Z,54.60
2022-11-16T18:49:01.265Z,54.90
2022-11-16T18:51:30.723Z,50.90
2022-11-16T18:53:58.924Z,52.00
2022-11-16T18:56:27.475Z,49.00
2022-11-16T18:58:55.911Z,48.30
2022-11-16T19:01:26.367Z,49.50
2022-11-16T19:03:56.204Z,50.40
2022-11-16T19:06:24.471Z,50.10
2022-11-16T19:08:59.682Z,58.80
2022-11-16T19:11:28.616Z,63.80
2022-11-16T19:14:00.994Z,69.80
2022-11-16T19:16:29.840Z,70.50
2022-11-16T19:18:58.235Z,67.60
2022-11-16T19:21:26.525Z,72.10
2022-11-16T19:23:56.311Z,67.40
2022-11-16T19:26:27.443Z,64.90
2022-11-16T19:28:56.219Z,62.00
2022-11-16T19:31:30.043Z,57.30
2022-11-16T19:34:02.341Z,57.00
2022-11-16T19:36:32.384Z,59.90
2022-11-16T19:39:00.736Z,62.20
2022-11-16T19:41:29.699Z,59.00
2022-11-16T19:44:00.340Z,55.30
2022-11-16T19:46:31.535Z,63.50
2022-11-16T19:49:00.589Z,57.30
2022-11-16T19:51:31.465Z,67.90
2022-11-16T19:54:01.985Z,63.90
2022-11-16T19:56:30.661Z,59.00
2022-11-16T19:58:59.029Z,60.70
2022-11-16T20:01:29.500Z,60.00
2022-11-16T20:04:03.738Z,58.00
2022-11-16T20:06:34.944Z,63.60
2022-11-16T20:09:09.098Z,63.80
2022-11-16T20:11:39.913Z,64.00
2022-11-16T20:14:10.466Z,61.80
2022-11-16T20:16:41.399Z,69.10
2022-11-16T20:19:10.761Z,73.60
2022-11-16T20:21:41.515Z,83.40
2022-11-16T20:24:12.709Z,82.80
2022-11-16T20:26:48.942Z,86.20
2022-11-16T20:29:18.913Z,90.90
2022-11-16T20:31:47.392Z,83.10
2022-11-16T20:34:17.687Z,77.00
2022-11-16T20:36:47.533Z,69.50
2022-11-16T20:39:17.892Z,75.50
2022-11-16T20:41:47.872Z,67.10
2022-11-16T20:44:23.634Z,65.50
2022-11-16T20:46:54.633Z,68.50
2022-11-16T20:49:22.946Z,71.90
2022-11-16T20:51:51.492Z,66.90
2022-11-16T20:54:19.811Z,62.50
2022-11-16T20:56:51.076Z,56.50
2022-11-16T20:59:19.378Z,58.80
2022-11-16T21:01:49.095Z,56.60
2022-11-16T21:04:17.594Z,61.80
2022-11-16T21:06:45.997Z,57.80
2022-11-16T21:09:22.866Z,58.10
2022-11-16T21:12:10.079Z,53.90
2022-11-16T21:14:38.352Z,59.20
2022-11-16T21:17:06.632Z,56.60
2022-11-16T21:19:34.908Z,54.10
2022-11-16T21:22:03.104Z,50.60
2022-11-16T21:24:32.463Z,53.90
2022-11-16T21:27:00.822Z,60.70
2022-11-16T21:29:29.158Z,56.10
2022-11-16T21:31:57.544Z,50.00
2022-11-16T21:34:28.098Z,54.30
2022-11-16T21:36:56.505Z,52.70
2022-11-16T21:39:25.427Z,52.80
2022-11-16T21:41:53.772Z,52.00
2022-11-16T21:44:22.052Z,50.60
2022-11-16T21:46:50.343Z,55.70
2022-11-16T21:49:18.673Z,50.40
2022-11-16T21:51:47.025Z,51.30
2022-11-16T21:54:15.271Z,50.30
2022-11-16T21:56:43.641Z,58.60
2022-11-16T21:59:11.923Z,56.10
2022-11-16T22:01:59.184Z,57.50
2022-11-16T22:04:47.705Z,57.10
2022-11-16T22:07:35.915Z,56.80
2022-11-16T22:10:09.960Z,52.00
2022-11-16T22:12:38.837Z,57.00
2022-11-16T22:15:07.756Z,57.30
2022-11-16T22:17:36.052Z,54.00
2022-11-16T22:20:04.760Z,54.00
2022-11-16T22:22:32.982Z,54.50
2022-11-16T22:25:01.659Z,57.40
2022-11-16T22:27:30.030Z,58.10
2022-11-16T22:29:58.224Z,53.80
2022-11-16T22:32:26.577Z,54.70
2022-11-16T22:34:54.793Z,57.10
2022-11-16T22:37:22.997Z,56.20
2022-11-16T22:39:51.199Z,51.70
2022-11-16T22:42:19.607Z,56.00
2022-11-16T22:44:47.835Z,58.30
2022-11-16T22:47:16.081Z,60.80
2022-11-16T22:49:44.341Z,58.20
2022-11-16T22:52:12.856Z,59.60
2022-11-16T22:54:41.081Z,61.30
2022-11-16T22:57:09.414Z,59.80
2022-11-16T22:59:37.803Z,51.10
2022-11-16T23:02:06.108Z,58.10
2022-11-16T23:04:34.449Z,57.10
2022-11-16T23:07:02.667Z,55.60
2022-11-16T23:09:32.369Z,56.10
2022-11-16T23:12:19.203Z,60.70
2022-11-16T23:15:06.037Z,59.10
2022-11-16T23:17:34.507Z,56.30
2022-11-16T23:20:21.757Z,55.60
2022-11-16T23:23:08.888Z,55.50
2022-11-16T23:25:56.178Z,56.80
2022-11-16T23:28:24.513Z,58.40
2022-11-16T23:30:52.785Z,52.80
2022-11-16T23:33:40.983Z,60.80
2022-11-16T23:36:09.800Z,60.20
2022-11-16T23:38:38.704Z,60.10
2022-11-16T23:41:26.235Z,56.10
2022-11-16T23:44:00.498Z,56.50
2022-11-16T23:46:31.122Z,56.70
2022-11-16T23:49:01.021Z,55.30
2022-11-16T23:51:29.345Z,61.30
2022-11-16T23:53:57.644Z,64.80
2022-11-16T23:56:27.655Z,63.30
2022-11-16T23:58:57.672Z,62.10
